Aeroporto :
LOGIN :

Iscrizione | Disclaimer

   EN    FR    IT 

 










Sommario :    VFR   VFR Marginale   IFR   IFR Intensivo   IFR Molto Intensivo
Visibilità : 
Base nubi : 
>= 8 km
>= 3000ft
5 / 8 km
1000 / 3000 ft
1500m / 5 km
500 / 1000 ft
800 / 1500m
200 / 500 ft
< 800m
< 200 ft
Simboli :   Temporali  Nebbia  Neve Forte  Precipitazioni Forti  Vento > 20 kt
SIGMETs :   Varie  Temporali  Ghiacco  Turbolenza  Onda orograficha  Ceneri Vulcaniche






- Altitudine del aeroporto : 276 ft


LYVR - Vršac International

ULTIMO METAR :
  • 201200Z 11020G36KT 9999 SCT040 14/10 Q1013 NOSIG

METARs OBSOLETI :
  • 201130Z 10022G40KT 9999 -RA SCT040 14/11 Q1014 NOSIG
  • 201100Z 12020G33KT 9999 -RA SCT043 14/11 Q1015 NOSIG
  • 201030Z 12020G45KT 9999 -RA SCT043 15/10 Q1015 NOSIG
  • 201000Z 15018G43KT CAVOK 15/10 Q1015 NOSIG
  • 200930Z 15023G43KT CAVOK 16/09 Q1015 NOSIG

TAF TAF LYVR
Valido dal 20 a 12 ore il 21 a 12 ore UTC


201100Z 2012/2112 14018G35KT 9999 SCT040 TX17/2012Z TN10/2105Z
TEMPO 2012/2016 15025G43KT
PROB40
TEMPO 2012/2015 RA



MetMap, La meteo Aeronautica in un colpo d'occhio ! - Copyright ORBIFLY Dicembre 2007 - Disclaimer

ORBIFLY MET'MAP TEAM :

Programmazione e sviluppo : Alexandra Zaïnal
Concezione e sviluppo : Baudouin d'Aumeries
Co-Programmazione e sviluppo : Marc-Olivier Méhu
Supporto tecnico e logistico : Manuel Goepfert
Aiuto per la traduzione : Arnaldo La Scala

Contatto : metmap@orbifly.com




FONTI E CREDITI :

   NOAA